KGBD

Great Bend Municipal Airport

Great Bend, Kansas, USA
METAR KGBD 172056Z AUTO 33009KT 10SM CLR 09/M01 A2997 RMK AO2 SLP151 T00891011 56007
Observed Flight Rules
Dec-17 @ 20:56 UTC (16 minutes ago) Visual Flight Rules
Wind Visibility Clouds
330° at 9 knots 10 miles
  • Clear skies
Temperatures Readings
Current 9°C / 48°F
Dewpoint -1°C / 30°F
Humidity 50%
Altimeter 29.97" Hg
Pressure 1015.1 hPa
Elevation 575
METAR KGBD 172056Z AUTO 33009KT 10SM CLR 09/M01 A2997 RMK AO2 SLP151 T00891011 56007
Observed Flight Rules
Dec-17 @ 20:56 UTC
(16 minutes ago)
VFR
Wind Visibility
330° at 9 knots 10 miles
Clouds
  • Clear skies
Temperature Dewpoint
9°C / 48°F -1°C / 30°F
Humidity Altimeter Pressure
50% 29.97" Hg 1015.1 hPa